Airfield :







YOU CAN JOIN US ON...

 
LOGIN :

Register | Disclaimer

   EN    FR    IT 

 









Legend :    VFR   Marginal VFR   IFR   Intensive IFR   Very Intensive IFR
Visi :
Ceiling :
>= 8 km
>= 3000ft
5 to 8 km
1000 to 3000 ft
1500m to 5 km
500 to 1000 ft
800 to 1500m
200 to 500 ft
< 800m
< 200 ft
Symbols :   Thunderstorms  Fog  Heavy snow  Heavy precipitations  Wind > 20 kt






- Airport Elevation : 68 ft
- IATA code : YFC


CYFC - Fredericton

CURRENT METAR :
  • 281300Z AUTO 34003KT 9SM CLR 14/12 A2980 RMK SLP094 DENSITY ALT 200FT

EXPIRED METARs :
  • 281200Z AUTO 30004KT 9SM CLR 13/12 A2979 RMK SLP091 DENSITY ALT 100FT
  • 281100Z AUTO 25004KT 9SM CLR 12/11 A2978 RMK SLP086
  • 281052Z AUTO 24004KT 6SM BR CLR 11/11 A2977 RMK SLP085
  • 281040Z AUTO 19004KT 4SM BR FEW096 11/11 A2977 RMK SLP084

TAF TAF CYFC
Valid from the 28 at 12:00 until the 29 at 00:00 UTC


281138Z 2812/2824 25005KT P6SM SCT240
FM281800 30008KT P6SM SCT040 RMK FCST BASED ON AUTO OBS. NXT FCST BY 281800Z
CZQM FIR / North America



MET'MAP, your aeronautical weather chart ! - Copyright ORBIFLY December 2007 - Disclaimer

ORBIFLY MET'MAP TEAM :

Programming & Development : Alexandra Zaïnal
Concept & original design : Baudouin d'Aumeries
Assistance for programming : Marc-Olivier Méhu
Technical & hardware support : Manuel Goepfert

Contact : metmap@orbifly.com




SOURCES & CREDITS :

   NOAA